Time;durP1;ratioP1;P1;durP2;ratioP2;P2;SDS_P1;SDS_P2;PMS_P1;PMS_P2;Temp;Humidity;BMP_temperature;BMP_pressure;BME280_temperature;BME280_humidity;BME280_pressure;Samples;Min_cycle;Max_cycle;Signal;HPM_P1;HPM_P2
2021/10/06 00:01:30;;;;;;;58.47;2.60;;;10.50;1.00;;;;;;5132765;27;21015;-72
2021/10/06 00:03:57;;;;;;;58.50;2.70;;;10.50;1.00;;;;;;5132878;27;20952;-72
2021/10/06 00:06:23;;;;;;;58.50;2.80;;;10.50;1.00;;;;;;5132394;27;20444;-72
2021/10/06 00:08:50;;;;;;;58.47;2.70;;;10.50;1.00;;;;;;5132486;27;20478;-72
2021/10/06 00:11:17;;;;;;;58.47;2.80;;;10.50;1.00;;;;;;5132369;27;20480;-72
2021/10/06 00:13:44;;;;;;;58.37;2.73;;;10.50;1.00;;;;;;5132831;28;20528;-72
2021/10/06 00:16:12;;;;;;;58.40;2.90;;;10.40;1.00;;;;;;5130196;28;20448;-72
2021/10/06 00:18:41;;;;;;;58.40;2.80;;;10.40;1.00;;;;;;5132347;28;20969;-72
2021/10/06 00:21:08;;;;;;;58.23;2.60;;;10.40;1.00;;;;;;5132521;28;20540;-71
2021/10/06 00:23:36;;;;;;;58.53;2.70;;;10.40;1.00;;;;;;5132440;28;20543;-72
2021/10/06 00:26:04;;;;;;;58.43;2.70;;;10.30;1.00;;;;;;5132010;28;20543;-72
2021/10/06 00:28:31;;;;;;;58.53;2.90;;;10.30;1.00;;;;;;5132539;28;20593;-72
2021/10/06 00:30:59;;;;;;;58.40;2.70;;;10.30;1.00;;;;;;5132776;28;20571;-72
2021/10/06 00:33:26;;;;;;;58.33;2.60;;;10.30;1.00;;;;;;5132230;28;20449;-72
2021/10/06 00:35:55;;;;;;;58.60;2.70;;;10.30;1.00;;;;;;5131903;28;20812;-72
2021/10/06 00:38:22;;;;;;;58.47;2.77;;;10.40;1.00;;;;;;5131871;28;20461;-72
2021/10/06 00:40:49;;;;;;;58.37;2.50;;;10.40;1.00;;;;;;5132666;28;20487;-72
2021/10/06 00:43:17;;;;;;;58.27;2.80;;;10.40;1.00;;;;;;5132493;28;20531;-72
2021/10/06 00:45:44;;;;;;;58.47;2.70;;;10.40;1.00;;;;;;5134258;27;20450;-72
2021/10/06 00:48:11;;;;;;;58.67;2.70;;;10.40;1.00;;;;;;5136092;27;20460;-73
2021/10/06 00:50:38;;;;;;;58.23;2.67;;;10.30;1.00;;;;;;5134521;27;20486;-72
2021/10/06 00:53:07;;;;;;;58.33;2.70;;;10.30;1.00;;;;;;5135784;27;20894;-72
2021/10/06 00:55:34;;;;;;;58.40;2.60;;;10.20;1.00;;;;;;5135613;27;20538;-72
2021/10/06 00:58:01;;;;;;;59.20;3.27;;;10.10;1.00;;;;;;5136282;27;20503;-72
2021/10/06 01:00:28;;;;;;;58.43;2.50;;;10.00;1.00;;;;;;5136166;27;20499;-72
2021/10/06 01:02:55;;;;;;;58.53;2.57;;;9.90;1.00;;;;;;5136082;27;20521;-72
2021/10/06 01:05:22;;;;;;;58.67;2.87;;;9.90;1.00;;;;;;5135809;27;20542;-72
2021/10/06 01:07:49;;;;;;;58.37;2.90;;;9.80;1.00;;;;;;5136320;27;20471;-72
2021/10/06 01:10:17;;;;;;;58.87;3.10;;;9.80;1.00;;;;;;5136001;27;20567;-73
2021/10/06 01:12:44;;;;;;;58.67;2.90;;;9.70;1.00;;;;;;5136098;27;20444;-73
2021/10/06 01:15:13;;;;;;;58.60;2.70;;;9.70;1.00;;;;;;5135490;27;20535;-73
2021/10/06 01:17:40;;;;;;;58.40;2.50;;;9.60;1.00;;;;;;5135448;27;20916;-73
2021/10/06 01:20:09;;;;;;;58.63;2.90;;;9.60;1.00;;;;;;5135758;27;20534;-73
2021/10/06 01:22:38;;;;;;;58.70;3.00;;;9.50;1.00;;;;;;5118797;27;20551;-73
2021/10/06 01:25:07;;;;;;;58.47;2.70;;;9.50;1.00;;;;;;5114966;28;20457;-73
2021/10/06 01:27:36;;;;;;;58.67;2.63;;;9.40;1.00;;;;;;5114530;28;20480;-71
2021/10/06 01:30:03;;;;;;;58.53;2.63;;;9.40;1.00;;;;;;5118482;27;20490;-71
2021/10/06 01:32:35;;;;;;;58.33;2.70;;;9.40;1.00;;;;;;5135428;27;20535;-72
2021/10/06 01:35:02;;;;;;;58.37;2.73;;;9.30;1.00;;;;;;5135585;27;20652;-72
2021/10/06 01:37:29;;;;;;;58.67;2.80;;;9.30;1.00;;;;;;5134953;27;20460;-72
2021/10/06 01:39:57;;;;;;;58.43;2.60;;;9.30;1.00;;;;;;5135365;27;20690;-72
2021/10/06 01:42:24;;;;;;;58.37;2.70;;;9.30;1.00;;;;;;5135564;27;20476;-72
2021/10/06 01:44:51;;;;;;;58.23;2.70;;;9.30;1.00;;;;;;5135305;27;20456;-72
2021/10/06 01:47:19;;;;;;;58.57;2.77;;;9.20;1.00;;;;;;5135146;27;20448;-72
2021/10/06 01:49:47;;;;;;;58.50;2.60;;;9.30;1.00;;;;;;5135072;27;20472;-72
2021/10/06 01:52:17;;;;;;;58.70;2.90;;;9.30;1.00;;;;;;5135209;27;20452;-72
2021/10/06 01:54:44;;;;;;;58.27;2.70;;;9.30;1.00;;;;;;5118739;27;20455;-72
2021/10/06 01:57:13;;;;;;;58.53;2.57;;;9.30;1.00;;;;;;5114060;28;20528;-72
2021/10/06 01:59:42;;;;;;;58.40;2.80;;;9.30;1.00;;;;;;5114395;28;20469;-72
2021/10/06 02:02:09;;;;;;;58.53;2.80;;;9.30;1.00;;;;;;5114499;28;20534;-72
2021/10/06 02:04:36;;;;;;;58.77;2.90;;;9.30;1.00;;;;;;5114262;28;20650;-72
2021/10/06 02:07:03;;;;;;;58.27;2.70;;;9.30;1.00;;;;;;5114066;28;20455;-72
2021/10/06 02:09:30;;;;;;;58.37;2.70;;;9.30;1.00;;;;;;5114291;28;20471;-72
2021/10/06 02:11:57;;;;;;;58.37;2.60;;;9.30;1.00;;;;;;5114449;28;20536;-72
2021/10/06 02:14:25;;;;;;;58.33;2.63;;;9.40;1.00;;;;;;5114221;28;20531;-72
2021/10/06 02:16:52;;;;;;;58.40;2.83;;;9.40;1.00;;;;;;5113681;28;20448;-72
2021/10/06 02:19:19;;;;;;;58.47;3.00;;;9.50;1.00;;;;;;5114272;28;20499;-72
2021/10/06 02:21:46;;;;;;;58.47;2.90;;;9.60;1.00;;;;;;5113920;28;20456;-72
2021/10/06 02:24:13;;;;;;;58.40;2.70;;;9.70;1.00;;;;;;5113963;28;20550;-72
2021/10/06 02:26:40;;;;;;;58.53;2.80;;;9.80;1.00;;;;;;5123435;27;20483;-72
2021/10/06 02:29:07;;;;;;;58.27;2.73;;;9.80;1.00;;;;;;5134463;27;21048;-72
2021/10/06 02:31:35;;;;;;;58.27;2.73;;;9.90;1.00;;;;;;5134434;27;20480;-72
2021/10/06 02:34:02;;;;;;;58.37;2.63;;;9.90;1.00;;;;;;5134027;27;20547;-72
2021/10/06 02:36:29;;;;;;;58.67;2.67;;;10.00;1.00;;;;;;5133743;27;20872;-72
2021/10/06 02:38:55;;;;;;;58.27;2.77;;;10.00;1.00;;;;;;5134101;27;20540;-71
2021/10/06 02:41:22;;;;;;;58.27;2.70;;;10.10;1.00;;;;;;5134303;27;20484;-71
2021/10/06 02:43:49;;;;;;;58.37;2.77;;;10.10;1.00;;;;;;5134036;27;20935;-72
2021/10/06 02:46:16;;;;;;;58.33;2.77;;;10.10;1.00;;;;;;5133849;27;20547;-72
2021/10/06 02:48:44;;;;;;;58.40;2.70;;;10.20;1.00;;;;;;5133970;27;20998;-72
2021/10/06 02:51:11;;;;;;;58.43;2.70;;;10.20;1.00;;;;;;5134226;27;20571;-72
2021/10/06 02:53:38;;;;;;;58.27;2.70;;;10.20;1.00;;;;;;5133939;27;20995;-72
2021/10/06 02:56:06;;;;;;;58.37;2.67;;;10.20;1.00;;;;;;5132954;27;20531;-72
2021/10/06 02:58:32;;;;;;;58.57;2.60;;;10.20;1.00;;;;;;5132090;27;20986;-72
2021/10/06 03:00:59;;;;;;;58.27;2.80;;;10.20;1.00;;;;;;5133969;27;20444;-72
2021/10/06 03:03:26;;;;;;;58.47;2.77;;;10.20;1.00;;;;;;5133488;27;20543;-72
2021/10/06 03:05:54;;;;;;;58.40;2.80;;;10.30;1.00;;;;;;5133452;27;20875;-72
2021/10/06 03:08:21;;;;;;;58.37;2.80;;;10.30;1.00;;;;;;5133380;27;20551;-72
2021/10/06 03:10:48;;;;;;;58.43;2.77;;;10.30;1.00;;;;;;5133698;27;20481;-72
2021/10/06 03:13:15;;;;;;;58.07;2.63;;;10.40;1.00;;;;;;5133615;27;20448;-72
2021/10/06 03:15:42;;;;;;;58.27;2.60;;;10.40;1.00;;;;;;5132791;27;20531;-72
2021/10/06 03:18:09;;;;;;;58.30;2.60;;;10.50;1.00;;;;;;5133426;27;20830;-72
2021/10/06 03:20:37;;;;;;;58.33;2.60;;;10.50;1.00;;;;;;5133023;27;20448;-72
2021/10/06 03:23:05;;;;;;;58.23;2.70;;;10.50;1.00;;;;;;5133578;27;20437;-72
2021/10/06 03:25:33;;;;;;;58.27;2.70;;;10.50;1.00;;;;;;5132974;27;20458;-72
2021/10/06 03:28:00;;;;;;;58.17;2.63;;;10.50;1.00;;;;;;5132972;27;20468;-72
2021/10/06 03:30:27;;;;;;;58.23;2.70;;;10.50;1.00;;;;;;5130858;27;20477;-72
2021/10/06 03:32:54;;;;;;;58.27;2.57;;;10.50;1.00;;;;;;5133787;27;20451;-71
2021/10/06 03:35:21;;;;;;;58.33;2.60;;;10.50;1.00;;;;;;5132747;27;20483;-71
2021/10/06 03:37:48;;;;;;;58.30;2.43;;;10.50;1.00;;;;;;5133103;27;20475;-71
2021/10/06 03:40:17;;;;;;;58.30;2.60;;;10.50;1.00;;;;;;5132792;27;20449;-71
2021/10/06 03:42:44;;;;;;;58.07;2.53;;;10.60;1.00;;;;;;5133142;27;20538;-71
2021/10/06 03:45:14;;;;;;;58.20;2.47;;;10.60;1.00;;;;;;5132769;27;20531;-72
2021/10/06 03:47:41;;;;;;;58.27;2.67;;;10.60;1.00;;;;;;5132491;27;20472;-72
2021/10/06 03:50:11;;;;;;;58.33;2.67;;;10.60;1.00;;;;;;5132972;27;20564;-72
2021/10/06 03:52:38;;;;;;;58.07;2.70;;;10.60;1.00;;;;;;5133056;27;20451;-72
2021/10/06 03:55:06;;;;;;;58.43;2.60;;;10.60;1.00;;;;;;5132774;27;20889;-72
2021/10/06 04:00:56;;;;;;;58.20;2.50;;;10.50;1.00;;;;;;5130299;27;20440;-72
2021/10/06 04:03:23;;;;;;;58.30;2.70;;;10.40;1.00;;;;;;5131255;27;20448;-72
2021/10/06 04:05:50;;;;;;;58.37;2.70;;;10.40;1.00;;;;;;5132301;27;20893;-72
2021/10/06 04:08:18;;;;;;;58.27;2.57;;;10.40;1.00;;;;;;5132540;27;20547;-72
2021/10/06 04:10:45;;;;;;;58.03;2.47;;;10.50;1.00;;;;;;5132718;27;20848;-72
2021/10/06 04:13:12;;;;;;;58.17;2.57;;;10.50;1.00;;;;;;5132865;28;21019;-72
2021/10/06 04:15:38;;;;;;;58.07;2.57;;;10.50;1.00;;;;;;5131897;28;20531;-72
2021/10/06 04:18:07;;;;;;;58.17;2.80;;;10.50;1.00;;;;;;5132579;28;20550;-72
2021/10/06 04:20:34;;;;;;;58.17;2.60;;;10.60;1.00;;;;;;5133822;27;20440;-72
2021/10/06 04:23:01;;;;;;;58.23;2.60;;;10.60;1.00;;;;;;5136926;27;20484;-72
2021/10/06 04:25:28;;;;;;;58.20;2.60;;;10.60;1.00;;;;;;5136287;27;20487;-72
2021/10/06 04:27:55;;;;;;;58.27;2.73;;;10.70;1.00;;;;;;5136729;27;20539;-72
2021/10/06 04:30:22;;;;;;;58.10;2.60;;;10.70;1.00;;;;;;5136901;27;20539;-72
2021/10/06 04:32:48;;;;;;;58.37;2.63;;;10.70;1.00;;;;;;5136520;27;20436;-72
2021/10/06 04:35:17;;;;;;;58.27;2.60;;;10.70;1.00;;;;;;5134210;27;20445;-72
2021/10/06 04:37:44;;;;;;;58.13;2.67;;;10.70;1.00;;;;;;5136129;27;20465;-72
2021/10/06 04:40:12;;;;;;;58.17;2.50;;;10.70;1.00;;;;;;5136553;27;20526;-72
2021/10/06 04:42:38;;;;;;;58.00;2.57;;;10.80;1.00;;;;;;5136316;27;20446;-72
2021/10/06 04:45:06;;;;;;;58.13;2.67;;;10.80;1.00;;;;;;5136226;27;20547;-72
2021/10/06 04:47:33;;;;;;;58.13;2.70;;;10.80;1.00;;;;;;5136198;27;20944;-72
2021/10/06 04:50:00;;;;;;;58.20;2.47;;;10.90;1.00;;;;;;5136116;27;20482;-72
2021/10/06 04:52:28;;;;;;;58.30;2.47;;;10.90;1.00;;;;;;5136446;27;20924;-72
2021/10/06 04:54:55;;;;;;;58.17;2.40;;;10.90;1.00;;;;;;5136153;27;20457;-72
2021/10/06 04:57:22;;;;;;;57.87;2.57;;;10.90;1.00;;;;;;5135497;27;20948;-72
2021/10/06 04:59:49;;;;;;;57.97;2.57;;;10.90;1.00;;;;;;5136044;27;20539;-72
2021/10/06 05:02:16;;;;;;;58.03;2.57;;;10.90;1.00;;;;;;5136126;27;20468;-72
2021/10/06 05:04:43;;;;;;;58.33;2.60;;;10.90;1.00;;;;;;5136008;27;20951;-72
2021/10/06 05:07:10;;;;;;;57.87;2.40;;;10.90;1.00;;;;;;5134272;27;20539;-72
2021/10/06 05:09:38;;;;;;;58.10;2.67;;;10.90;1.00;;;;;;5136173;27;20460;-72
2021/10/06 05:12:05;;;;;;;58.07;2.70;;;10.90;1.00;;;;;;5136244;27;20480;-72
2021/10/06 05:14:32;;;;;;;58.17;2.80;;;10.90;1.00;;;;;;5136226;27;20549;-72
2021/10/06 05:16:59;;;;;;;58.23;2.70;;;10.90;1.00;;;;;;5135303;27;20531;-72
2021/10/06 05:19:26;;;;;;;58.30;2.67;;;10.90;1.00;;;;;;5135755;27;20477;-72
2021/10/06 05:21:53;;;;;;;58.00;2.60;;;10.80;1.00;;;;;;5135638;27;20979;-72
2021/10/06 05:24:20;;;;;;;58.17;2.57;;;10.80;1.00;;;;;;5135958;27;20883;-72
2021/10/06 05:26:48;;;;;;;58.10;2.73;;;10.80;1.00;;;;;;5135110;27;20484;-72
2021/10/06 05:29:15;;;;;;;57.87;2.50;;;10.80;1.00;;;;;;5135732;27;20544;-72
2021/10/06 05:31:42;;;;;;;58.23;2.70;;;10.70;1.00;;;;;;5134916;27;20484;-72
2021/10/06 05:34:09;;;;;;;58.07;2.70;;;10.70;1.00;;;;;;5135773;27;20451;-72
2021/10/06 05:36:36;;;;;;;58.13;2.77;;;10.70;1.00;;;;;;5135531;27;20444;-72
2021/10/06 05:39:03;;;;;;;58.20;2.60;;;10.70;1.00;;;;;;5116533;27;20473;-72
2021/10/06 05:41:30;;;;;;;58.47;2.43;;;10.70;1.00;;;;;;5114757;28;20532;-72
2021/10/06 05:43:58;;;;;;;58.13;2.50;;;10.80;1.00;;;;;;5114858;28;20825;-72
2021/10/06 05:46:26;;;;;;;58.27;2.60;;;10.80;1.00;;;;;;5114516;28;20456;-72
2021/10/06 05:48:53;;;;;;;58.27;2.60;;;10.80;1.00;;;;;;5114852;28;20473;-72
2021/10/06 05:51:20;;;;;;;58.03;2.60;;;10.80;1.00;;;;;;5114394;28;20476;-72
2021/10/06 05:53:47;;;;;;;58.10;2.50;;;10.80;1.00;;;;;;5114678;28;20452;-71
2021/10/06 05:56:14;;;;;;;58.23;2.63;;;10.90;1.00;;;;;;5114160;28;20451;-72
2021/10/06 05:58:41;;;;;;;58.30;2.73;;;10.90;1.00;;;;;;5114522;28;20544;-72
2021/10/06 06:01:09;;;;;;;58.17;2.60;;;10.90;1.00;;;;;;5114616;28;20446;-72
2021/10/06 06:03:36;;;;;;;58.17;2.70;;;10.90;1.00;;;;;;5114590;28;20445;-71
2021/10/06 06:06:03;;;;;;;58.20;2.70;;;10.90;1.00;;;;;;5114088;28;20499;-71
2021/10/06 06:08:30;;;;;;;58.43;2.67;;;11.00;1.00;;;;;;5114492;28;20901;-71
2021/10/06 06:10:56;;;;;;;58.27;2.70;;;11.20;1.00;;;;;;5131276;27;20455;-71
2021/10/06 06:13:23;;;;;;;58.20;2.63;;;11.40;1.00;;;;;;5135241;27;20581;-71
2021/10/06 06:15:52;;;;;;;58.00;2.57;;;11.50;1.00;;;;;;5134670;27;20440;-71
2021/10/06 06:18:20;;;;;;;58.17;2.60;;;11.60;1.00;;;;;;5134405;27;20521;-71
2021/10/06 06:20:48;;;;;;;58.17;2.67;;;11.70;1.00;;;;;;5134518;27;20488;-72
2021/10/06 06:23:14;;;;;;;58.17;2.50;;;11.70;1.00;;;;;;5134545;27;20885;-71
2021/10/06 06:25:41;;;;;;;57.87;2.70;;;11.70;1.00;;;;;;5133920;27;20452;-71
2021/10/06 06:28:08;;;;;;;57.87;2.70;;;11.60;1.00;;;;;;5134472;27;20469;-71
2021/10/06 06:30:36;;;;;;;58.20;2.90;;;11.60;1.00;;;;;;5134358;27;20448;-71
2021/10/06 06:33:03;;;;;;;58.10;2.63;;;11.50;1.00;;;;;;5134465;27;20476;-72
2021/10/06 06:35:31;;;;;;;57.97;2.50;;;11.50;1.00;;;;;;5133918;27;20441;-71
2021/10/06 06:37:58;;;;;;;58.37;2.50;;;11.40;1.00;;;;;;5134008;27;20499;-71
2021/10/06 06:40:25;;;;;;;58.30;2.67;;;11.50;1.00;;;;;;5132508;27;20436;-72
2021/10/06 06:42:52;;;;;;;57.77;2.50;;;11.40;1.00;;;;;;5133150;27;20854;-71
2021/10/06 06:45:19;;;;;;;58.30;2.60;;;11.50;1.00;;;;;;5134185;27;20453;-72
2021/10/06 06:47:46;;;;;;;58.30;2.97;;;11.60;1.00;;;;;;5133771;27;20964;-71
2021/10/06 06:50:15;;;;;;;57.87;2.40;;;11.70;1.00;;;;;;5134275;27;20504;-71
2021/10/06 06:52:43;;;;;;;57.97;2.50;;;11.80;1.00;;;;;;5133735;27;20591;-72
2021/10/06 06:55:10;;;;;;;57.97;2.47;;;11.90;1.00;;;;;;5133993;27;21015;-71
2021/10/06 06:57:37;;;;;;;58.07;2.63;;;11.90;1.00;;;;;;5133771;27;20440;-72
2021/10/06 07:00:05;;;;;;;58.07;2.60;;;11.90;1.00;;;;;;5133513;27;20480;-72
2021/10/06 07:02:32;;;;;;;58.07;2.40;;;12.00;1.00;;;;;;5133533;27;20440;-72
2021/10/06 07:05:00;;;;;;;57.97;2.47;;;12.00;1.00;;;;;;5133636;27;20487;-72
2021/10/06 07:07:27;;;;;;;57.97;2.43;;;12.10;1.00;;;;;;5133104;27;20455;-72
2021/10/06 07:09:55;;;;;;;57.97;2.50;;;12.30;1.00;;;;;;5133897;27;20452;-72
2021/10/06 07:12:23;;;;;;;58.37;3.00;;;12.40;1.00;;;;;;5131389;27;20486;-72
2021/10/06 07:14:51;;;;;;;57.83;2.30;;;12.50;1.00;;;;;;5133595;27;20536;-72
2021/10/06 07:17:19;;;;;;;57.83;2.33;;;12.70;1.00;;;;;;5133135;27;20534;-72
2021/10/06 07:19:47;;;;;;;57.77;2.40;;;12.80;1.00;;;;;;5133091;27;21064;-72
2021/10/06 07:22:15;;;;;;;57.97;2.23;;;12.90;1.00;;;;;;5133224;27;20449;-72
2021/10/06 07:24:41;;;;;;;57.87;2.27;;;13.10;1.00;;;;;;5133193;27;21002;-72
2021/10/06 07:27:10;;;;;;;57.93;2.60;;;13.20;1.00;;;;;;5132750;27;20529;-72
2021/10/06 07:29:37;;;;;;;57.93;2.60;;;13.30;1.00;;;;;;5133574;27;20496;-72
2021/10/06 07:32:06;;;;;;;57.97;2.60;;;13.40;1.00;;;;;;5133287;27;21083;-73
2021/10/06 07:34:33;;;;;;;58.07;2.30;;;13.40;1.00;;;;;;5133258;27;20527;-73
2021/10/06 07:37:00;;;;;;;57.77;2.60;;;13.40;1.00;;;;;;5132745;27;20536;-73
2021/10/06 07:39:27;;;;;;;58.07;2.30;;;13.40;1.00;;;;;;5132265;27;20476;-73
2021/10/06 07:41:54;;;;;;;57.97;2.50;;;13.40;1.00;;;;;;5132948;27;20532;-73
2021/10/06 07:44:22;;;;;;;58.07;2.30;;;13.50;1.00;;;;;;5131332;27;20566;-73
2021/10/06 07:46:50;;;;;;;57.87;2.47;;;13.60;1.00;;;;;;5132247;27;20536;-73
2021/10/06 07:49:17;;;;;;;58.00;2.70;;;13.80;1.00;;;;;;5133016;27;20532;-72
2021/10/06 07:51:44;;;;;;;58.07;2.60;;;14.00;1.00;;;;;;5133255;27;20517;-73
2021/10/06 07:54:11;;;;;;;58.10;2.43;;;14.10;1.00;;;;;;5132648;27;20985;-73
2021/10/06 07:56:38;;;;;;;58.07;2.33;;;14.10;1.00;;;;;;5132623;27;20438;-73
2021/10/06 07:59:04;;;;;;;58.00;2.40;;;14.20;1.00;;;;;;5132660;27;20459;-73
2021/10/06 08:01:33;;;;;;;58.03;2.60;;;14.10;1.00;;;;;;5132351;27;20541;-73
2021/10/06 08:04:00;;;;;;;58.07;2.30;;;13.90;1.00;;;;;;5132524;27;20538;-73
2021/10/06 08:06:26;;;;;;;58.03;2.40;;;13.80;1.00;;;;;;5132635;27;20829;-74
2021/10/06 08:08:53;;;;;;;58.13;2.60;;;13.70;1.00;;;;;;5132688;27;20553;-73
2021/10/06 08:11:20;;;;;;;57.97;2.50;;;13.60;1.00;;;;;;5132591;27;20441;-73
2021/10/06 08:13:47;;;;;;;57.93;2.47;;;13.60;1.00;;;;;;5132162;27;20577;-74
2021/10/06 08:16:14;;;;;;;58.03;2.40;;;13.60;1.00;;;;;;5116140;28;20544;-73
2021/10/06 08:18:42;;;;;;;57.87;2.37;;;13.70;1.00;;;;;;5112336;28;20472;-74
2021/10/06 08:21:09;;;;;;;57.93;2.27;;;13.80;1.00;;;;;;5111754;28;20444;-74
2021/10/06 08:23:36;;;;;;;57.97;2.37;;;13.90;1.00;;;;;;5111979;28;20531;-74
2021/10/06 08:26:03;;;;;;;57.67;2.13;;;13.90;1.00;;;;;;5111607;28;20486;-74
2021/10/06 08:28:30;;;;;;;57.97;2.33;;;14.00;1.00;;;;;;5111706;28;20477;-74
2021/10/06 08:30:57;;;;;;;57.77;2.43;;;14.00;1.00;;;;;;5111373;28;20728;-74
2021/10/06 08:33:24;;;;;;;57.97;2.73;;;14.00;1.00;;;;;;5111851;28;20484;-74
2021/10/06 08:35:52;;;;;;;57.93;2.37;;;14.00;1.00;;;;;;5110727;28;20455;-74
2021/10/06 08:38:20;;;;;;;57.90;2.40;;;14.10;1.00;;;;;;5110956;28;20476;-74
2021/10/06 08:40:47;;;;;;;57.67;2.50;;;14.20;1.00;;;;;;5111119;28;20506;-74
2021/10/06 08:43:16;;;;;;;57.87;2.60;;;14.20;1.00;;;;;;5111457;28;20758;-74
2021/10/06 08:45:43;;;;;;;57.90;2.60;;;14.20;1.00;;;;;;5111348;28;20526;-74
2021/10/06 08:48:11;;;;;;;57.87;2.70;;;14.30;1.00;;;;;;5125338;27;20553;-75
2021/10/06 08:50:39;;;;;;;58.07;2.80;;;14.30;1.00;;;;;;5132478;28;20727;-75
2021/10/06 08:53:07;;;;;;;57.93;2.47;;;14.30;1.00;;;;;;5132365;28;20476;-75
2021/10/06 08:55:35;;;;;;;57.97;2.33;;;14.00;1.00;;;;;;5131605;28;20485;-75
2021/10/06 08:58:05;;;;;;;57.97;2.37;;;13.60;1.00;;;;;;5132681;28;20500;-74
2021/10/06 09:00:50;;;;;;;58.17;2.60;;;13.30;1.00;;;;;;5132074;28;20452;-74
2021/10/06 09:03:25;;;;;;;57.87;2.23;;;13.00;1.00;;;;;;5132111;28;20943;-73
2021/10/06 09:06:01;;;;;;;58.07;2.30;;;12.70;1.00;;;;;;5132329;27;20853;-73
2021/10/06 09:08:30;;;;;;;57.97;2.40;;;12.50;1.00;;;;;;5136154;27;20835;-73
2021/10/06 09:10:58;;;;;;;58.13;2.43;;;12.40;1.00;;;;;;5136386;27;20452;-73
2021/10/06 09:13:29;;;;;;;58.13;2.60;;;12.30;1.00;;;;;;5136512;27;20520;-73
2021/10/06 09:15:58;;;;;;;58.27;2.50;;;12.20;1.00;;;;;;5135847;27;20449;-73
2021/10/06 09:18:27;;;;;;;58.07;2.63;;;12.40;1.00;;;;;;5135752;27;20892;-73
2021/10/06 09:20:57;;;;;;;58.60;3.83;;;12.70;1.00;;;;;;5135929;27;20997;-74
2021/10/06 09:23:24;;;;;;;58.10;2.60;;;13.10;1.00;;;;;;5135978;27;20816;-74
2021/10/06 09:25:55;;;;;;;57.87;2.33;;;13.30;1.00;;;;;;5135009;27;20465;-74
2021/10/06 09:28:25;;;;;;;57.87;2.50;;;13.40;1.00;;;;;;5134421;27;20907;-74
2021/10/06 09:30:54;;;;;;;57.83;2.40;;;13.40;1.00;;;;;;5135601;27;20446;-74
2021/10/06 09:33:21;;;;;;;58.20;2.40;;;13.30;1.00;;;;;;5135174;27;20489;-75
2021/10/06 09:35:52;;;;;;;58.00;2.50;;;13.30;1.00;;;;;;5135314;27;20476;-75
2021/10/06 09:38:19;;;;;;;57.87;2.33;;;13.40;1.00;;;;;;5135302;27;20461;-74
2021/10/06 09:40:46;;;;;;;57.80;2.60;;;13.60;1.00;;;;;;5135318;27;20476;-75
2021/10/06 09:43:15;;;;;;;58.23;2.57;;;14.00;1.00;;;;;;5135035;27;20474;-75
2021/10/06 09:45:42;;;;;;;57.77;2.40;;;14.30;1.00;;;;;;5133982;27;20449;-75
2021/10/06 09:48:11;;;;;;;57.67;2.30;;;14.60;1.00;;;;;;5135616;27;20502;-75
2021/10/06 09:50:41;;;;;;;57.80;2.30;;;14.80;1.00;;;;;;5134957;27;20862;-75
2021/10/06 09:53:12;;;;;;;57.77;2.27;;;14.80;1.00;;;;;;5135532;27;20904;-75
2021/10/06 09:55:40;;;;;;;57.93;2.30;;;14.80;1.00;;;;;;5134896;27;20491;-75
2021/10/06 09:58:07;;;;;;;57.93;2.60;;;14.80;1.00;;;;;;5135095;27;20883;-75
2021/10/06 10:00:36;;;;;;;57.87;2.30;;;14.70;1.00;;;;;;5133080;27;20485;-75
2021/10/06 10:03:04;;;;;;;57.77;2.40;;;14.70;1.00;;;;;;5134809;27;20443;-73
2021/10/06 10:05:33;;;;;;;58.03;2.40;;;14.60;1.00;;;;;;5134217;27;20533;-72
2021/10/06 10:08:03;;;;;;;58.10;2.47;;;14.70;1.00;;;;;;5135021;27;21010;-72
2021/10/06 10:10:29;;;;;;;57.80;2.40;;;14.80;1.00;;;;;;5134086;27;20454;-75
2021/10/06 10:12:57;;;;;;;57.83;2.30;;;14.70;1.00;;;;;;5134787;27;20546;-75
2021/10/06 10:15:24;;;;;;;57.83;2.57;;;14.40;1.00;;;;;;5134472;27;20447;-74
2021/10/06 10:17:57;;;;;;;57.77;2.10;;;14.30;1.00;;;;;;5133399;27;20978;-74
2021/10/06 10:20:25;;;;;;;57.57;2.30;;;14.00;1.00;;;;;;5134942;27;20528;-74
2021/10/06 10:22:57;;;;;;;57.97;2.30;;;13.80;1.00;;;;;;5132112;27;20979;-74
2021/10/06 10:25:26;;;;;;;58.00;2.30;;;13.60;1.00;;;;;;5133654;27;20504;-74
2021/10/06 10:28:00;;;;;;;58.10;2.37;;;13.40;1.00;;;;;;5134371;27;20498;-72
2021/10/06 10:30:28;;;;;;;58.03;2.27;;;13.10;1.00;;;;;;5134670;27;20445;-71
2021/10/06 10:32:57;;;;;;;57.93;2.47;;;12.80;1.00;;;;;;5134503;27;20572;-71
2021/10/06 10:35:36;;;;;;;57.87;2.40;;;12.70;1.00;;;;;;5134131;27;20955;-71
2021/10/06 10:38:14;;;;;;;58.10;2.33;;;12.80;1.00;;;;;;5134290;27;20556;-72
2021/10/06 10:40:54;;;;;;;57.97;2.50;;;13.10;1.00;;;;;;5134363;27;20444;-71
2021/10/06 10:43:22;;;;;;;58.13;2.70;;;13.40;1.00;;;;;;5134249;27;20449;-69
2021/10/06 10:45:52;;;;;;;57.87;2.50;;;14.70;1.00;;;;;;5133760;27;20453;-69
2021/10/06 10:48:22;;;;;;;57.87;2.37;;;16.60;1.00;;;;;;5133990;27;20460;-69
2021/10/06 10:51:09;;;;;;;57.83;2.20;;;18.50;1.00;;;;;;5134307;27;20479;-70
2021/10/06 10:54:02;;;;;;;58.20;2.30;;;20.10;1.00;;;;;;5132131;27;20583;-71
2021/10/06 10:56:44;;;;;;;58.03;2.60;;;21.30;1.00;;;;;;5133387;27;20476;-70
2021/10/06 10:59:13;;;;;;;58.07;2.30;;;22.10;1.00;;;;;;5134123;27;20555;-72
2021/10/06 11:01:45;;;;;;;58.17;2.50;;;22.70;1.00;;;;;;5134101;27;20881;-71
2021/10/06 11:04:17;;;;;;;57.47;2.17;;;23.10;1.00;;;;;;5133256;27;20455;-72
2021/10/06 11:06:45;;;;;;;58.00;2.30;;;23.60;1.00;;;;;;5133099;27;20535;-72
2021/10/06 11:09:41;;;;;;;57.73;2.20;;;24.30;1.00;;;;;;5133629;27;20507;-72
2021/10/06 11:12:31;;;;;;;57.70;2.00;;;25.20;1.00;;;;;;5133736;27;20527;-72
2021/10/06 11:15:35;;;;;;;57.73;1.97;;;26.00;1.00;;;;;;5133987;27;20535;-72
2021/10/06 11:18:23;;;;;;;57.37;2.10;;;25.40;1.00;;;;;;5133597;27;20874;-72
2021/10/06 11:20:58;;;;;;;57.77;2.20;;;23.70;1.00;;;;;;5119144;27;20461;-72
2021/10/06 11:23:42;;;;;;;57.87;2.10;;;22.20;1.00;;;;;;5133209;27;20444;-72
2021/10/06 11:26:11;;;;;;;57.50;2.20;;;20.90;1.00;;;;;;5131710;27;20472;-72
2021/10/06 11:28:39;;;;;;;57.63;2.37;;;20.90;1.00;;;;;;5132887;27;21168;-72
2021/10/06 11:31:07;;;;;;;57.77;2.10;;;22.00;1.00;;;;;;5133321;27;20877;-72
2021/10/06 11:33:35;;;;;;;57.40;2.20;;;22.60;1.00;;;;;;5133272;27;20602;-72
2021/10/06 11:36:12;;;;;;;57.80;2.07;;;23.20;1.00;;;;;;5132711;27;20477;-72
2021/10/06 11:38:41;;;;;;;58.10;3.07;;;22.50;1.00;;;;;;5132972;27;20544;-69
2021/10/06 11:41:08;;;;;;;57.57;2.30;;;21.40;1.00;;;;;;5133336;27;20539;-69
2021/10/06 11:43:40;;;;;;;58.07;2.23;;;20.60;1.00;;;;;;5132850;27;20443;-72
2021/10/06 11:46:08;;;;;;;57.57;2.47;;;20.20;1.00;;;;;;5132695;27;20531;-72
2021/10/06 11:48:35;;;;;;;57.67;2.10;;;21.30;1.00;;;;;;5132908;27;20900;-72
2021/10/06 11:51:02;;;;;;;57.70;2.20;;;22.20;1.00;;;;;;5133042;27;20882;-72
2021/10/06 11:53:44;;;;;;;57.30;2.20;;;22.00;1.00;;;;;;5133124;27;20563;-72
2021/10/06 11:56:22;;;;;;;57.57;2.27;;;21.60;1.00;;;;;;5131879;27;20472;-71
2021/10/06 11:58:49;;;;;;;57.77;2.60;;;21.20;1.00;;;;;;5112120;28;20533;-72
2021/10/06 12:01:16;;;;;;;57.77;2.30;;;20.40;1.00;;;;;;5112175;28;20567;-72
2021/10/06 12:03:43;;;;;;;58.00;2.50;;;19.60;1.00;;;;;;5112017;28;20529;-72
2021/10/06 12:06:12;;;;;;;57.70;2.33;;;19.00;1.00;;;;;;5111708;28;20517;-72
2021/10/06 12:08:40;;;;;;;57.80;2.57;;;18.80;1.00;;;;;;5111844;28;20563;-71
2021/10/06 12:11:08;;;;;;;57.57;2.30;;;18.50;1.00;;;;;;5112055;28;20554;-71
2021/10/06 12:13:38;;;;;;;57.70;2.60;;;19.60;1.00;;;;;;5111862;28;20564;-71
2021/10/06 12:16:22;;;;;;;57.57;1.90;;;21.50;1.00;;;;;;5112047;28;20871;-72
2021/10/06 12:18:56;;;;;;;57.67;2.30;;;23.80;1.00;;;;;;5112115;28;20471;-72
2021/10/06 12:21:23;;;;;;;57.33;2.00;;;24.90;1.00;;;;;;5112646;28;20536;-72
2021/10/06 12:23:50;;;;;;;57.60;2.00;;;24.60;1.00;;;;;;5111774;28;20539;-72
2021/10/06 12:26:21;;;;;;;57.43;2.00;;;23.50;1.00;;;;;;5111329;28;20490;-72
2021/10/06 12:28:52;;;;;;;57.37;2.10;;;22.20;1.00;;;;;;5119305;28;20469;-72
2021/10/06 12:31:26;;;;;;;57.37;2.20;;;21.30;1.00;;;;;;5132582;28;20535;-72
2021/10/06 12:34:06;;;;;;;57.57;2.33;;;20.50;1.00;;;;;;5132643;28;20553;-72
2021/10/06 12:36:34;;;;;;;58.13;2.70;;;19.60;1.00;;;;;;5132285;28;20524;-72
2021/10/06 12:39:02;;;;;;;57.77;2.63;;;18.60;1.00;;;;;;5132479;28;20551;-71
2021/10/06 12:41:39;;;;;;;57.47;2.40;;;17.90;1.00;;;;;;5134061;27;20959;-71
2021/10/06 12:44:18;;;;;;;58.03;2.37;;;16.90;1.00;;;;;;5136356;27;20507;-72
2021/10/06 12:46:45;;;;;;;58.47;3.10;;;15.90;1.00;;;;;;5135909;27;20482;-73
2021/10/06 12:49:14;;;;;;;58.07;2.40;;;14.90;1.00;;;;;;5136465;27;20550;-73
2021/10/06 12:51:43;;;;;;;58.80;3.80;;;14.10;1.00;;;;;;5136500;27;20486;-73
2021/10/06 12:54:16;;;;;;;58.33;2.63;;;13.60;1.00;;;;;;5136033;27;20547;-73
2021/10/06 12:56:52;;;;;;;58.27;2.40;;;13.10;1.00;;;;;;5135680;27;20814;-73
2021/10/06 12:59:26;;;;;;;58.20;2.50;;;13.00;1.00;;;;;;5135956;27;20779;-72